sensor_id;sensor_type;location;lat;lon;timestamp;temperature;humidity
12819;DHT22;6474;53.474;9.894;2022-12-05T00:01:45;4.40;91.20
12819;DHT22;6474;53.474;9.894;2022-12-05T00:04:13;4.40;91.20
12819;DHT22;6474;53.474;9.894;2022-12-05T00:06:42;4.30;91.20
12819;DHT22;6474;53.474;9.894;2022-12-05T00:09:12;4.30;91.20
12819;DHT22;6474;53.474;9.894;2022-12-05T00:11:41;4.30;91.20
12819;DHT22;6474;53.474;9.894;2022-12-05T00:14:10;4.40;91.20
12819;DHT22;6474;53.474;9.894;2022-12-05T00:16:39;4.30;91.20
12819;DHT22;6474;53.474;9.894;2022-12-05T00:19:11;4.30;91.20
12819;DHT22;6474;53.474;9.894;2022-12-05T00:21:40;4.30;91.20
12819;DHT22;6474;53.474;9.894;2022-12-05T00:24:12;4.30;91.20
12819;DHT22;6474;53.474;9.894;2022-12-05T00:26:40;4.30;91.20
12819;DHT22;6474;53.474;9.894;2022-12-05T00:29:08;4.30;91.20
12819;DHT22;6474;53.474;9.894;2022-12-05T00:31:36;4.30;91.20
12819;DHT22;6474;53.474;9.894;2022-12-05T00:34:04;4.30;91.20
12819;DHT22;6474;53.474;9.894;2022-12-05T00:36:34;4.30;91.20
12819;DHT22;6474;53.474;9.894;2022-12-05T00:39:04;4.40;91.30
12819;DHT22;6474;53.474;9.894;2022-12-05T00:41:32;4.40;91.30
12819;DHT22;6474;53.474;9.894;2022-12-05T00:44:01;4.40;91.30
12819;DHT22;6474;53.474;9.894;2022-12-05T00:46:30;4.40;91.30
12819;DHT22;6474;53.474;9.894;2022-12-05T00:48:59;4.40;91.30
12819;DHT22;6474;53.474;9.894;2022-12-05T00:51:29;4.40;91.30
12819;DHT22;6474;53.474;9.894;2022-12-05T00:54:00;4.40;91.30
12819;DHT22;6474;53.474;9.894;2022-12-05T00:56:29;4.40;91.20
12819;DHT22;6474;53.474;9.894;2022-12-05T00:58:58;4.30;91.20
12819;DHT22;6474;53.474;9.894;2022-12-05T01:01:28;4.40;91.30
12819;DHT22;6474;53.474;9.894;2022-12-05T01:03:59;4.40;91.20
12819;DHT22;6474;53.474;9.894;2022-12-05T01:06:27;4.40;91.30
12819;DHT22;6474;53.474;9.894;2022-12-05T01:08:57;4.40;91.20
12819;DHT22;6474;53.474;9.894;2022-12-05T01:11:26;4.40;91.30
12819;DHT22;6474;53.474;9.894;2022-12-05T01:13:54;4.40;91.30
12819;DHT22;6474;53.474;9.894;2022-12-05T01:16:24;4.40;91.20
12819;DHT22;6474;53.474;9.894;2022-12-05T01:18:53;4.40;91.20
12819;DHT22;6474;53.474;9.894;2022-12-05T01:21:21;4.40;91.20
12819;DHT22;6474;53.474;9.894;2022-12-05T01:23:51;4.40;91.20
12819;DHT22;6474;53.474;9.894;2022-12-05T01:26:22;4.40;91.20
12819;DHT22;6474;53.474;9.894;2022-12-05T01:28:50;4.40;91.30
12819;DHT22;6474;53.474;9.894;2022-12-05T01:31:21;4.40;91.20
12819;DHT22;6474;53.474;9.894;2022-12-05T01:33:51;4.40;91.20
12819;DHT22;6474;53.474;9.894;2022-12-05T01:36:20;4.40;91.20
12819;DHT22;6474;53.474;9.894;2022-12-05T01:38:48;4.40;91.20
12819;DHT22;6474;53.474;9.894;2022-12-05T01:41:21;4.40;91.20
12819;DHT22;6474;53.474;9.894;2022-12-05T01:43:56;4.40;91.30
12819;DHT22;6474;53.474;9.894;2022-12-05T01:46:26;4.40;91.20
12819;DHT22;6474;53.474;9.894;2022-12-05T01:48:57;4.40;91.20
12819;DHT22;6474;53.474;9.894;2022-12-05T01:51:26;4.40;91.30
12819;DHT22;6474;53.474;9.894;2022-12-05T01:53:54;4.50;91.30
12819;DHT22;6474;53.474;9.894;2022-12-05T01:56:23;4.50;91.30
12819;DHT22;6474;53.474;9.894;2022-12-05T01:58:52;4.50;91.30
12819;DHT22;6474;53.474;9.894;2022-12-05T02:01:22;4.50;91.30
12819;DHT22;6474;53.474;9.894;2022-12-05T02:03:51;4.50;91.30
12819;DHT22;6474;53.474;9.894;2022-12-05T02:06:21;4.50;91.30
12819;DHT22;6474;53.474;9.894;2022-12-05T02:08:51;4.50;91.30
12819;DHT22;6474;53.474;9.894;2022-12-05T02:11:19;4.50;91.30
12819;DHT22;6474;53.474;9.894;2022-12-05T02:14:00;4.50;91.30
12819;DHT22;6474;53.474;9.894;2022-12-05T02:16:41;4.50;91.30
12819;DHT22;6474;53.474;9.894;2022-12-05T02:25:49;4.50;91.30
12819;DHT22;6474;53.474;9.894;2022-12-05T02:28:36;4.50;91.30
12819;DHT22;6474;53.474;9.894;2022-12-05T02:31:10;4.60;91.30
12819;DHT22;6474;53.474;9.894;2022-12-05T02:33:45;4.60;91.30
12819;DHT22;6474;53.474;9.894;2022-12-05T02:36:18;4.60;91.30
12819;DHT22;6474;53.474;9.894;2022-12-05T02:38:53;4.60;91.30
12819;DHT22;6474;53.474;9.894;2022-12-05T02:41:28;4.60;91.30
12819;DHT22;6474;53.474;9.894;2022-12-05T02:44:02;4.60;91.30
12819;DHT22;6474;53.474;9.894;2022-12-05T02:46:35;4.60;91.30
12819;DHT22;6474;53.474;9.894;2022-12-05T02:49:06;4.60;91.30
12819;DHT22;6474;53.474;9.894;2022-12-05T02:51:40;4.60;91.30
12819;DHT22;6474;53.474;9.894;2022-12-05T02:54:11;4.60;91.30
12819;DHT22;6474;53.474;9.894;2022-12-05T02:56:43;4.60;91.30
12819;DHT22;6474;53.474;9.894;2022-12-05T02:59:12;4.60;91.30
12819;DHT22;6474;53.474;9.894;2022-12-05T03:01:48;4.60;91.60
12819;DHT22;6474;53.474;9.894;2022-12-05T03:04:18;4.60;91.30
12819;DHT22;6474;53.474;9.894;2022-12-05T03:06:50;4.60;91.30
12819;DHT22;6474;53.474;9.894;2022-12-05T03:09:23;4.60;91.30
12819;DHT22;6474;53.474;9.894;2022-12-05T03:11:55;4.60;91.20
12819;DHT22;6474;53.474;9.894;2022-12-05T03:14:29;4.60;91.20
12819;DHT22;6474;53.474;9.894;2022-12-05T03:17:02;4.60;91.20
12819;DHT22;6474;53.474;9.894;2022-12-05T03:19:36;4.60;91.20
12819;DHT22;6474;53.474;9.894;2022-12-05T03:22:14;4.60;91.20
12819;DHT22;6474;53.474;9.894;2022-12-05T03:24:44;4.60;91.30
12819;DHT22;6474;53.474;9.894;2022-12-05T03:27:15;4.60;91.30
12819;DHT22;6474;53.474;9.894;2022-12-05T03:29:49;4.60;91.30
12819;DHT22;6474;53.474;9.894;2022-12-05T03:32:23;4.60;91.30
12819;DHT22;6474;53.474;9.894;2022-12-05T03:35:01;4.60;91.30
12819;DHT22;6474;53.474;9.894;2022-12-05T03:37:38;4.60;91.30
12819;DHT22;6474;53.474;9.894;2022-12-05T03:40:12;4.60;91.30
12819;DHT22;6474;53.474;9.894;2022-12-05T03:42:48;4.60;91.30
12819;DHT22;6474;53.474;9.894;2022-12-05T03:45:23;4.60;91.30
12819;DHT22;6474;53.474;9.894;2022-12-05T03:48:00;4.60;91.30
12819;DHT22;6474;53.474;9.894;2022-12-05T03:50:29;4.70;91.30
12819;DHT22;6474;53.474;9.894;2022-12-05T03:52:58;4.60;91.60
12819;DHT22;6474;53.474;9.894;2022-12-05T03:55:49;4.60;91.30
12819;DHT22;6474;53.474;9.894;2022-12-05T03:58:25;4.60;91.30
12819;DHT22;6474;53.474;9.894;2022-12-05T04:00:56;4.70;91.30
12819;DHT22;6474;53.474;9.894;2022-12-05T04:03:30;4.70;91.30
12819;DHT22;6474;53.474;9.894;2022-12-05T04:06:09;4.70;91.30
12819;DHT22;6474;53.474;9.894;2022-12-05T04:08:42;4.70;91.30
12819;DHT22;6474;53.474;9.894;2022-12-05T04:11:14;4.70;91.30
12819;DHT22;6474;53.474;9.894;2022-12-05T04:13:46;4.70;91.30
12819;DHT22;6474;53.474;9.894;2022-12-05T04:16:18;4.70;91.30
12819;DHT22;6474;53.474;9.894;2022-12-05T04:19:09;4.70;91.30
12819;DHT22;6474;53.474;9.894;2022-12-05T04:21:44;4.70;91.30
12819;DHT22;6474;53.474;9.894;2022-12-05T04:24:15;4.70;91.30
12819;DHT22;6474;53.474;9.894;2022-12-05T04:27:12;4.70;91.20
12819;DHT22;6474;53.474;9.894;2022-12-05T04:29:49;4.70;91.20
12819;DHT22;6474;53.474;9.894;2022-12-05T04:32:23;4.70;91.30
12819;DHT22;6474;53.474;9.894;2022-12-05T04:34:57;4.70;91.30
12819;DHT22;6474;53.474;9.894;2022-12-05T04:37:27;4.70;91.60
12819;DHT22;6474;53.474;9.894;2022-12-05T04:40:00;4.70;91.30
12819;DHT22;6474;53.474;9.894;2022-12-05T04:42:30;4.60;91.20
12819;DHT22;6474;53.474;9.894;2022-12-05T04:45:03;4.70;91.30
12819;DHT22;6474;53.474;9.894;2022-12-05T04:47:36;4.60;91.20
12819;DHT22;6474;53.474;9.894;2022-12-05T04:50:09;4.60;91.30
12819;DHT22;6474;53.474;9.894;2022-12-05T04:52:38;4.60;91.30
12819;DHT22;6474;53.474;9.894;2022-12-05T04:55:10;4.60;91.30
12819;DHT22;6474;53.474;9.894;2022-12-05T04:57:42;4.70;91.30
12819;DHT22;6474;53.474;9.894;2022-12-05T05:00:12;4.60;91.30
12819;DHT22;6474;53.474;9.894;2022-12-05T05:02:44;4.60;91.30
12819;DHT22;6474;53.474;9.894;2022-12-05T05:05:16;4.60;91.30
12819;DHT22;6474;53.474;9.894;2022-12-05T05:07:46;4.60;91.30
12819;DHT22;6474;53.474;9.894;2022-12-05T05:10:18;4.60;91.30
12819;DHT22;6474;53.474;9.894;2022-12-05T05:12:47;4.60;91.30
12819;DHT22;6474;53.474;9.894;2022-12-05T05:15:15;4.60;91.30
12819;DHT22;6474;53.474;9.894;2022-12-05T05:17:43;4.60;91.30
12819;DHT22;6474;53.474;9.894;2022-12-05T05:20:11;4.60;91.30
12819;DHT22;6474;53.474;9.894;2022-12-05T05:22:54;4.60;91.30
12819;DHT22;6474;53.474;9.894;2022-12-05T05:25:24;4.70;91.30
12819;DHT22;6474;53.474;9.894;2022-12-05T05:27:53;4.60;91.30
12819;DHT22;6474;53.474;9.894;2022-12-05T05:30:23;4.60;91.30
12819;DHT22;6474;53.474;9.894;2022-12-05T05:32:51;4.60;91.30
12819;DHT22;6474;53.474;9.894;2022-12-05T05:35:19;4.70;91.40
12819;DHT22;6474;53.474;9.894;2022-12-05T05:37:48;4.60;91.30
12819;DHT22;6474;53.474;9.894;2022-12-05T05:40:18;4.60;91.30
12819;DHT22;6474;53.474;9.894;2022-12-05T05:42:48;4.70;91.40
12819;DHT22;6474;53.474;9.894;2022-12-05T05:45:16;4.70;91.40
12819;DHT22;6474;53.474;9.894;2022-12-05T05:47:44;4.70;91.40
12819;DHT22;6474;53.474;9.894;2022-12-05T05:50:15;4.70;91.40
12819;DHT22;6474;53.474;9.894;2022-12-05T05:52:47;4.60;91.30
12819;DHT22;6474;53.474;9.894;2022-12-05T05:55:15;4.70;91.40
12819;DHT22;6474;53.474;9.894;2022-12-05T05:57:45;4.70;91.40
12819;DHT22;6474;53.474;9.894;2022-12-05T06:00:15;4.70;91.40
12819;DHT22;6474;53.474;9.894;2022-12-05T06:02:42;4.70;91.40
12819;DHT22;6474;53.474;9.894;2022-12-05T06:05:12;4.70;91.40
12819;DHT22;6474;53.474;9.894;2022-12-05T06:07:51;4.70;91.40
12819;DHT22;6474;53.474;9.894;2022-12-05T06:10:19;4.70;91.40
12819;DHT22;6474;53.474;9.894;2022-12-05T06:12:48;4.70;91.30
12819;DHT22;6474;53.474;9.894;2022-12-05T06:15:16;4.60;91.30
12819;DHT22;6474;53.474;9.894;2022-12-05T06:17:44;4.60;91.30
12819;DHT22;6474;53.474;9.894;2022-12-05T06:20:12;4.60;91.30
12819;DHT22;6474;53.474;9.894;2022-12-05T06:22:41;4.60;91.30
12819;DHT22;6474;53.474;9.894;2022-12-05T06:25:13;4.60;91.30
12819;DHT22;6474;53.474;9.894;2022-12-05T06:27:41;4.50;91.20
12819;DHT22;6474;53.474;9.894;2022-12-05T06:30:11;4.60;91.30
12819;DHT22;6474;53.474;9.894;2022-12-05T06:32:39;4.50;91.30
12819;DHT22;6474;53.474;9.894;2022-12-05T06:35:07;4.50;91.20
12819;DHT22;6474;53.474;9.894;2022-12-05T06:37:41;4.50;91.30
12819;DHT22;6474;53.474;9.894;2022-12-05T06:40:11;4.50;91.20
12819;DHT22;6474;53.474;9.894;2022-12-05T06:42:39;4.50;91.50
12819;DHT22;6474;53.474;9.894;2022-12-05T06:45:08;4.50;91.20
12819;DHT22;6474;53.474;9.894;2022-12-05T06:47:37;4.50;91.30
12819;DHT22;6474;53.474;9.894;2022-12-05T06:50:06;4.50;91.30
12819;DHT22;6474;53.474;9.894;2022-12-05T06:52:37;4.50;91.30
12819;DHT22;6474;53.474;9.894;2022-12-05T06:55:07;4.50;91.30
12819;DHT22;6474;53.474;9.894;2022-12-05T06:57:35;4.50;91.30
12819;DHT22;6474;53.474;9.894;2022-12-05T07:00:05;4.50;91.30
12819;DHT22;6474;53.474;9.894;2022-12-05T07:02:52;4.50;91.30
12819;DHT22;6474;53.474;9.894;2022-12-05T07:05:23;4.50;91.30
12819;DHT22;6474;53.474;9.894;2022-12-05T07:07:54;4.50;91.30
12819;DHT22;6474;53.474;9.894;2022-12-05T07:10:22;4.50;91.30
12819;DHT22;6474;53.474;9.894;2022-12-05T07:12:50;4.50;91.30
12819;DHT22;6474;53.474;9.894;2022-12-05T07:15:20;4.50;91.30
12819;DHT22;6474;53.474;9.894;2022-12-05T07:17:53;4.50;91.30
12819;DHT22;6474;53.474;9.894;2022-12-05T07:20:22;4.50;91.30
12819;DHT22;6474;53.474;9.894;2022-12-05T07:22:49;4.40;91.30
12819;DHT22;6474;53.474;9.894;2022-12-05T07:25:17;4.40;91.50
12819;DHT22;6474;53.474;9.894;2022-12-05T07:27:47;4.40;91.20
12819;DHT22;6474;53.474;9.894;2022-12-05T07:30:15;4.40;91.20
12819;DHT22;6474;53.474;9.894;2022-12-05T07:32:43;4.40;91.20
12819;DHT22;6474;53.474;9.894;2022-12-05T07:35:15;4.40;91.20
12819;DHT22;6474;53.474;9.894;2022-12-05T07:37:43;4.40;91.20
12819;DHT22;6474;53.474;9.894;2022-12-05T07:40:12;4.40;91.20
12819;DHT22;6474;53.474;9.894;2022-12-05T07:42:40;4.40;91.30
12819;DHT22;6474;53.474;9.894;2022-12-05T07:45:10;4.40;91.30
12819;DHT22;6474;53.474;9.894;2022-12-05T07:47:38;4.40;91.20
12819;DHT22;6474;53.474;9.894;2022-12-05T07:50:07;4.40;91.20
12819;DHT22;6474;53.474;9.894;2022-12-05T07:52:39;4.40;91.30
12819;DHT22;6474;53.474;9.894;2022-12-05T07:55:08;4.40;91.20
12819;DHT22;6474;53.474;9.894;2022-12-05T07:57:38;4.40;91.30
12819;DHT22;6474;53.474;9.894;2022-12-05T08:00:06;4.40;91.30
12819;DHT22;6474;53.474;9.894;2022-12-05T08:02:34;4.40;91.30
12819;DHT22;6474;53.474;9.894;2022-12-05T08:05:06;4.40;91.30
12819;DHT22;6474;53.474;9.894;2022-12-05T08:07:36;4.30;91.30
12819;DHT22;6474;53.474;9.894;2022-12-05T08:10:07;4.40;91.30
12819;DHT22;6474;53.474;9.894;2022-12-05T08:12:35;4.30;91.20
12819;DHT22;6474;53.474;9.894;2022-12-05T08:15:07;4.30;91.30
12819;DHT22;6474;53.474;9.894;2022-12-05T08:17:35;4.30;91.30
12819;DHT22;6474;53.474;9.894;2022-12-05T08:20:04;4.30;91.30
12819;DHT22;6474;53.474;9.894;2022-12-05T08:22:32;4.30;91.20
12819;DHT22;6474;53.474;9.894;2022-12-05T08:25:00;4.30;91.20
12819;DHT22;6474;53.474;9.894;2022-12-05T08:27:29;4.30;91.30
12819;DHT22;6474;53.474;9.894;2022-12-05T08:29:57;4.30;91.20
12819;DHT22;6474;53.474;9.894;2022-12-05T08:32:25;4.30;91.30
12819;DHT22;6474;53.474;9.894;2022-12-05T08:34:53;4.20;91.30
12819;DHT22;6474;53.474;9.894;2022-12-05T08:37:21;4.20;91.30
12819;DHT22;6474;53.474;9.894;2022-12-05T08:39:52;4.30;91.30
12819;DHT22;6474;53.474;9.894;2022-12-05T08:42:19;4.20;91.20
12819;DHT22;6474;53.474;9.894;2022-12-05T08:44:48;4.20;91.30
12819;DHT22;6474;53.474;9.894;2022-12-05T08:47:17;4.20;91.30
12819;DHT22;6474;53.474;9.894;2022-12-05T08:49:45;4.20;91.30
12819;DHT22;6474;53.474;9.894;2022-12-05T08:52:13;4.20;91.30
12819;DHT22;6474;53.474;9.894;2022-12-05T08:54:43;4.10;91.30
12819;DHT22;6474;53.474;9.894;2022-12-05T08:57:11;4.10;91.20
12819;DHT22;6474;53.474;9.894;2022-12-05T08:59:39;4.10;91.30
12819;DHT22;6474;53.474;9.894;2022-12-05T09:02:09;4.10;91.30
12819;DHT22;6474;53.474;9.894;2022-12-05T09:04:37;4.10;91.30
12819;DHT22;6474;53.474;9.894;2022-12-05T09:07:05;4.10;91.30
12819;DHT22;6474;53.474;9.894;2022-12-05T09:09:33;4.00;91.20
12819;DHT22;6474;53.474;9.894;2022-12-05T09:12:02;4.00;91.20
12819;DHT22;6474;53.474;9.894;2022-12-05T09:14:29;4.00;91.20
12819;DHT22;6474;53.474;9.894;2022-12-05T09:16:59;4.00;91.20
12819;DHT22;6474;53.474;9.894;2022-12-05T09:19:28;4.00;91.20
12819;DHT22;6474;53.474;9.894;2022-12-05T09:21:56;4.00;91.20
12819;DHT22;6474;53.474;9.894;2022-12-05T09:24:24;3.90;91.20
12819;DHT22;6474;53.474;9.894;2022-12-05T09:26:53;3.90;91.20
12819;DHT22;6474;53.474;9.894;2022-12-05T09:29:21;3.90;91.30
12819;DHT22;6474;53.474;9.894;2022-12-05T09:31:53;3.90;91.30
12819;DHT22;6474;53.474;9.894;2022-12-05T09:34:21;3.90;91.20
12819;DHT22;6474;53.474;9.894;2022-12-05T09:36:52;3.90;91.30
12819;DHT22;6474;53.474;9.894;2022-12-05T09:39:42;3.90;91.30
12819;DHT22;6474;53.474;9.894;2022-12-05T09:42:32;3.80;91.20
12819;DHT22;6474;53.474;9.894;2022-12-05T09:45:16;3.80;91.20
12819;DHT22;6474;53.474;9.894;2022-12-05T09:47:53;3.80;91.20
12819;DHT22;6474;53.474;9.894;2022-12-05T09:50:24;3.80;91.30
12819;DHT22;6474;53.474;9.894;2022-12-05T09:53:04;3.80;91.30
12819;DHT22;6474;53.474;9.894;2022-12-05T09:55:39;3.80;91.20
12819;DHT22;6474;53.474;9.894;2022-12-05T09:58:16;3.80;91.30
12819;DHT22;6474;53.474;9.894;2022-12-05T10:00:45;3.80;91.30
12819;DHT22;6474;53.474;9.894;2022-12-05T10:03:21;3.80;91.30
12819;DHT22;6474;53.474;9.894;2022-12-05T10:05:57;3.90;91.60
12819;DHT22;6474;53.474;9.894;2022-12-05T10:08:34;3.90;91.30
12819;DHT22;6474;53.474;9.894;2022-12-05T10:11:11;3.90;91.30
12819;DHT22;6474;53.474;9.894;2022-12-05T10:13:49;3.90;91.30
12819;DHT22;6474;53.474;9.894;2022-12-05T10:16:27;3.90;91.60
12819;DHT22;6474;53.474;9.894;2022-12-05T10:18:58;3.90;91.30
12819;DHT22;6474;53.474;9.894;2022-12-05T10:21:30;3.90;91.30
12819;DHT22;6474;53.474;9.894;2022-12-05T10:24:02;4.00;91.30
12819;DHT22;6474;53.474;9.894;2022-12-05T10:26:34;4.00;91.30
12819;DHT22;6474;53.474;9.894;2022-12-05T10:29:10;4.00;91.30
12819;DHT22;6474;53.474;9.894;2022-12-05T10:31:39;4.00;91.20
12819;DHT22;6474;53.474;9.894;2022-12-05T10:34:11;4.00;91.20
12819;DHT22;6474;53.474;9.894;2022-12-05T10:36:44;4.10;91.20
12819;DHT22;6474;53.474;9.894;2022-12-05T10:39:17;4.10;91.20
12819;DHT22;6474;53.474;9.894;2022-12-05T10:41:45;4.10;91.20
12819;DHT22;6474;53.474;9.894;2022-12-05T10:44:13;4.00;91.10
12819;DHT22;6474;53.474;9.894;2022-12-05T10:46:41;4.00;91.10
12819;DHT22;6474;53.474;9.894;2022-12-05T10:49:10;4.00;91.20
12819;DHT22;6474;53.474;9.894;2022-12-05T10:51:38;4.00;91.10
12819;DHT22;6474;53.474;9.894;2022-12-05T10:54:14;4.00;91.10
12819;DHT22;6474;53.474;9.894;2022-12-05T10:56:45;4.00;91.10
12819;DHT22;6474;53.474;9.894;2022-12-05T10:59:15;4.00;91.20
12819;DHT22;6474;53.474;9.894;2022-12-05T11:01:46;4.00;91.20
12819;DHT22;6474;53.474;9.894;2022-12-05T11:04:27;4.00;91.30
12819;DHT22;6474;53.474;9.894;2022-12-05T11:06:57;4.00;91.30
12819;DHT22;6474;53.474;9.894;2022-12-05T11:09:28;4.10;91.30
12819;DHT22;6474;53.474;9.894;2022-12-05T11:14:54;4.10;91.30
12819;DHT22;6474;53.474;9.894;2022-12-05T11:17:28;4.10;91.30
12819;DHT22;6474;53.474;9.894;2022-12-05T11:19:56;4.10;91.30
12819;DHT22;6474;53.474;9.894;2022-12-05T11:22:34;4.20;91.30
12819;DHT22;6474;53.474;9.894;2022-12-05T11:25:23;4.20;91.20
12819;DHT22;6474;53.474;9.894;2022-12-05T11:27:52;4.20;91.20
12819;DHT22;6474;53.474;9.894;2022-12-05T11:30:28;4.20;91.20
12819;DHT22;6474;53.474;9.894;2022-12-05T11:33:10;4.20;91.20
12819;DHT22;6474;53.474;9.894;2022-12-05T11:35:39;4.20;91.20
12819;DHT22;6474;53.474;9.894;2022-12-05T11:38:10;4.20;91.10
12819;DHT22;6474;53.474;9.894;2022-12-05T11:40:42;4.10;91.10
12819;DHT22;6474;53.474;9.894;2022-12-05T11:43:29;4.10;91.10
12819;DHT22;6474;53.474;9.894;2022-12-05T11:46:06;4.10;91.20
12819;DHT22;6474;53.474;9.894;2022-12-05T11:48:55;4.10;91.20
12819;DHT22;6474;53.474;9.894;2022-12-05T11:51:35;4.00;91.20
12819;DHT22;6474;53.474;9.894;2022-12-05T11:54:47;4.00;91.30
12819;DHT22;6474;53.474;9.894;2022-12-05T11:58:10;4.00;91.20
12819;DHT22;6474;53.474;9.894;2022-12-05T12:00:49;4.00;91.30
12819;DHT22;6474;53.474;9.894;2022-12-05T12:03:39;4.00;91.20
12819;DHT22;6474;53.474;9.894;2022-12-05T12:06:22;4.00;91.30
12819;DHT22;6474;53.474;9.894;2022-12-05T12:09:05;4.00;91.30
12819;DHT22;6474;53.474;9.894;2022-12-05T12:11:41;4.00;91.30
12819;DHT22;6474;53.474;9.894;2022-12-05T12:14:19;4.00;91.30
12819;DHT22;6474;53.474;9.894;2022-12-05T12:17:00;4.10;91.30
12819;DHT22;6474;53.474;9.894;2022-12-05T12:19:49;4.10;91.30
12819;DHT22;6474;53.474;9.894;2022-12-05T12:22:38;4.10;91.20
12819;DHT22;6474;53.474;9.894;2022-12-05T12:25:22;4.10;91.20
12819;DHT22;6474;53.474;9.894;2022-12-05T12:28:02;4.10;91.30
12819;DHT22;6474;53.474;9.894;2022-12-05T12:30:42;4.10;91.20
12819;DHT22;6474;53.474;9.894;2022-12-05T12:33:29;4.10;91.20
12819;DHT22;6474;53.474;9.894;2022-12-05T12:36:06;4.00;91.20
12819;DHT22;6474;53.474;9.894;2022-12-05T12:38:52;4.10;91.30
12819;DHT22;6474;53.474;9.894;2022-12-05T12:41:36;4.00;91.20
12819;DHT22;6474;53.474;9.894;2022-12-05T12:44:32;4.10;91.30
12819;DHT22;6474;53.474;9.894;2022-12-05T12:47:09;4.10;91.30
12819;DHT22;6474;53.474;9.894;2022-12-05T12:49:52;4.10;91.30
12819;DHT22;6474;53.474;9.894;2022-12-05T12:52:29;4.10;91.30
12819;DHT22;6474;53.474;9.894;2022-12-05T12:55:12;4.10;91.30
12819;DHT22;6474;53.474;9.894;2022-12-05T12:57:58;4.10;91.20
12819;DHT22;6474;53.474;9.894;2022-12-05T13:00:42;4.10;91.10
12819;DHT22;6474;53.474;9.894;2022-12-05T13:03:15;4.00;91.10
12819;DHT22;6474;53.474;9.894;2022-12-05T13:05:48;4.00;91.10
12819;DHT22;6474;53.474;9.894;2022-12-05T13:08:22;4.00;91.20
12819;DHT22;6474;53.474;9.894;2022-12-05T13:10:51;4.00;91.20
12819;DHT22;6474;53.474;9.894;2022-12-05T13:13:23;4.00;91.50
12819;DHT22;6474;53.474;9.894;2022-12-05T13:16:03;3.90;91.20
12819;DHT22;6474;53.474;9.894;2022-12-05T13:18:34;4.00;91.30
12819;DHT22;6474;53.474;9.894;2022-12-05T13:21:06;4.00;91.30
12819;DHT22;6474;53.474;9.894;2022-12-05T13:23:41;4.00;91.30
12819;DHT22;6474;53.474;9.894;2022-12-05T13:26:11;4.00;91.30
12819;DHT22;6474;53.474;9.894;2022-12-05T13:28:48;4.00;91.30
12819;DHT22;6474;53.474;9.894;2022-12-05T13:31:16;3.90;91.20
12819;DHT22;6474;53.474;9.894;2022-12-05T13:33:46;4.00;91.30
12819;DHT22;6474;53.474;9.894;2022-12-05T13:36:18;4.00;91.30
12819;DHT22;6474;53.474;9.894;2022-12-05T13:39:06;4.00;91.30
12819;DHT22;6474;53.474;9.894;2022-12-05T13:41:59;4.00;91.20
12819;DHT22;6474;53.474;9.894;2022-12-05T13:44:41;4.00;91.20
12819;DHT22;6474;53.474;9.894;2022-12-05T13:47:27;4.00;91.20
12819;DHT22;6474;53.474;9.894;2022-12-05T13:50:02;3.90;91.20
12819;DHT22;6474;53.474;9.894;2022-12-05T13:52:39;4.00;91.20
12819;DHT22;6474;53.474;9.894;2022-12-05T13:55:20;3.90;91.20
12819;DHT22;6474;53.474;9.894;2022-12-05T13:57:54;3.90;91.20
12819;DHT22;6474;53.474;9.894;2022-12-05T14:00:29;3.90;91.30
12819;DHT22;6474;53.474;9.894;2022-12-05T14:03:01;3.90;91.30
12819;DHT22;6474;53.474;9.894;2022-12-05T14:05:48;3.90;91.30
12819;DHT22;6474;53.474;9.894;2022-12-05T14:08:51;3.90;91.30
12819;DHT22;6474;53.474;9.894;2022-12-05T14:11:20;3.90;91.30
12819;DHT22;6474;53.474;9.894;2022-12-05T14:13:48;3.90;91.20
12819;DHT22;6474;53.474;9.894;2022-12-05T14:19:26;3.90;91.20
12819;DHT22;6474;53.474;9.894;2022-12-05T14:22:10;3.90;91.20
12819;DHT22;6474;53.474;9.894;2022-12-05T14:24:55;3.90;91.20
12819;DHT22;6474;53.474;9.894;2022-12-05T14:27:38;3.90;91.20
12819;DHT22;6474;53.474;9.894;2022-12-05T14:30:23;3.80;91.20
12819;DHT22;6474;53.474;9.894;2022-12-05T14:32:53;3.80;91.20
12819;DHT22;6474;53.474;9.894;2022-12-05T14:35:26;3.90;91.20
12819;DHT22;6474;53.474;9.894;2022-12-05T14:37:57;3.90;91.20
12819;DHT22;6474;53.474;9.894;2022-12-05T14:40:38;3.80;91.20
12819;DHT22;6474;53.474;9.894;2022-12-05T14:43:17;3.80;91.20
12819;DHT22;6474;53.474;9.894;2022-12-05T14:45:57;3.80;91.20
12819;DHT22;6474;53.474;9.894;2022-12-05T14:48:30;3.80;91.20
12819;DHT22;6474;53.474;9.894;2022-12-05T14:51:00;3.80;91.30
12819;DHT22;6474;53.474;9.894;2022-12-05T14:53:41;3.80;91.30
12819;DHT22;6474;53.474;9.894;2022-12-05T14:56:17;3.70;91.20
12819;DHT22;6474;53.474;9.894;2022-12-05T14:58:52;3.80;91.30
12819;DHT22;6474;53.474;9.894;2022-12-05T15:01:28;3.80;91.30
12819;DHT22;6474;53.474;9.894;2022-12-05T15:04:17;3.80;91.30
12819;DHT22;6474;53.474;9.894;2022-12-05T15:06:52;3.80;91.30
12819;DHT22;6474;53.474;9.894;2022-12-05T15:09:40;3.80;91.30
12819;DHT22;6474;53.474;9.894;2022-12-05T15:12:19;3.70;91.20
12819;DHT22;6474;53.474;9.894;2022-12-05T15:14:53;3.70;91.30
12819;DHT22;6474;53.474;9.894;2022-12-05T15:17:27;3.70;91.20
12819;DHT22;6474;53.474;9.894;2022-12-05T15:20:00;3.70;91.20
12819;DHT22;6474;53.474;9.894;2022-12-05T15:22:33;3.70;91.20
12819;DHT22;6474;53.474;9.894;2022-12-05T15:25:21;3.70;91.30
12819;DHT22;6474;53.474;9.894;2022-12-05T15:27:56;3.70;91.20
12819;DHT22;6474;53.474;9.894;2022-12-05T15:30:25;3.70;91.20
12819;DHT22;6474;53.474;9.894;2022-12-05T15:32:53;3.60;91.20
12819;DHT22;6474;53.474;9.894;2022-12-05T15:35:26;3.60;91.20
12819;DHT22;6474;53.474;9.894;2022-12-05T15:37:57;3.60;91.20
12819;DHT22;6474;53.474;9.894;2022-12-05T15:40:32;3.60;91.20
12819;DHT22;6474;53.474;9.894;2022-12-05T15:43:24;3.60;91.30
12819;DHT22;6474;53.474;9.894;2022-12-05T15:46:16;3.60;91.30
12819;DHT22;6474;53.474;9.894;2022-12-05T15:48:50;3.60;91.20
12819;DHT22;6474;53.474;9.894;2022-12-05T15:51:19;3.60;91.30
12819;DHT22;6474;53.474;9.894;2022-12-05T15:53:52;3.60;91.20
12819;DHT22;6474;53.474;9.894;2022-12-05T15:56:24;3.50;91.20
12819;DHT22;6474;53.474;9.894;2022-12-05T15:59:00;3.50;91.20
12819;DHT22;6474;53.474;9.894;2022-12-05T16:01:34;3.50;91.30
12819;DHT22;6474;53.474;9.894;2022-12-05T16:04:13;3.50;91.30
12819;DHT22;6474;53.474;9.894;2022-12-05T16:06:43;3.50;91.30
12819;DHT22;6474;53.474;9.894;2022-12-05T16:09:14;3.50;91.30
12819;DHT22;6474;53.474;9.894;2022-12-05T16:11:51;3.50;91.30
12819;DHT22;6474;53.474;9.894;2022-12-05T16:14:21;3.50;91.30
12819;DHT22;6474;53.474;9.894;2022-12-05T16:17:13;3.50;91.30
12819;DHT22;6474;53.474;9.894;2022-12-05T16:19:43;3.50;91.30
12819;DHT22;6474;53.474;9.894;2022-12-05T16:22:20;3.50;91.30
12819;DHT22;6474;53.474;9.894;2022-12-05T16:24:54;3.50;91.30
12819;DHT22;6474;53.474;9.894;2022-12-05T16:27:24;3.50;91.30
12819;DHT22;6474;53.474;9.894;2022-12-05T16:30:08;3.50;91.30
12819;DHT22;6474;53.474;9.894;2022-12-05T16:32:37;3.50;91.30
12819;DHT22;6474;53.474;9.894;2022-12-05T16:35:25;3.50;91.30
12819;DHT22;6474;53.474;9.894;2022-12-05T16:38:06;3.50;91.30
12819;DHT22;6474;53.474;9.894;2022-12-05T16:40:36;3.50;91.30
12819;DHT22;6474;53.474;9.894;2022-12-05T16:43:14;3.50;91.30
12819;DHT22;6474;53.474;9.894;2022-12-05T16:45:46;3.40;91.20
12819;DHT22;6474;53.474;9.894;2022-12-05T16:48:17;3.40;91.20
12819;DHT22;6474;53.474;9.894;2022-12-05T16:50:46;3.50;91.60
12819;DHT22;6474;53.474;9.894;2022-12-05T16:53:20;3.50;91.30
12819;DHT22;6474;53.474;9.894;2022-12-05T16:55:48;3.40;91.30